This is the latest recevied weather packets stored in our database for station/object KJ4EBE. If no packets are shown the sender has not sent any weather packets the latest 10 day(s).
| Time | Temp. | Humidity | Pressure | Rain* | Wind** | Luminosity | Snow |
|---|---|---|---|---|---|---|---|
| 1776874175 | 18.89° C | 99% | 1017.1 hPa | 0 mm | - | 229 W/m² | - |
| 1776873872 | 18.89° C | 99% | 1017.3 hPa | 0 mm | - | 190 W/m² | - |
| 1776873569 | 18.89° C | 99% | 1017.2 hPa | 0 mm | - | 238 W/m² | - |
| 1776873264 | 18.89° C | 99% | 1017.1 hPa | 0 mm | - | 188 W/m² | - |
| 1776872960 | 18.33° C | 99% | 1017.2 hPa | 0 mm | - | 178 W/m² | - |
| 1776872657 | 18.33° C | 99% | 1017.3 hPa | 0 mm | - | 155 W/m² | - |
| 1776872354 | 18.33° C | 99% | 1017.2 hPa | 0 mm | - | 161 W/m² | - |
| 1776872049 | 18.33° C | 99% | 1017.1 hPa | 0 mm | - | 179 W/m² | - |
| 1776871747 | 18.33° C | 99% | 1017.3 hPa | 0 mm | - | 110 W/m² | - |
| 1776871446 | 18.33° C | 99% | 1017.2 hPa | 0 mm | - | 180 W/m² | - |
| 1776871143 | 18.33° C | 99% | 1017.2 hPa | 0 mm | - | 109 W/m² | - |
| 1776870841 | 18.33° C | 99% | 1017.3 hPa | 0 mm | - | 108 W/m² | - |
| 1776870538 | 18.33° C | 99% | 1017.2 hPa | 0 mm | - | 130 W/m² | - |
| 1776870233 | 17.78° C | 99% | 1017.1 hPa | 0 mm | - | 119 W/m² | - |
| 1776869927 | 18.33° C | 99% | 1017.1 hPa | 0 mm | - | 144 W/m² | - |
| 1776869624 | 17.78° C | 99% | 1017.1 hPa | 0 mm | - | 130 W/m² | - |
| 1776869319 | 17.78° C | 99% | 1017.1 hPa | 0 mm | - | 92 W/m² | - |
| 1776869017 | 17.78° C | 99% | 1017.2 hPa | 0 mm | - | 85 W/m² | - |
| 1776868712 | 17.78° C | 99% | 1017.3 hPa | 0 mm | - | 79 W/m² | - |
| 1776868409 | 17.78° C | 99% | 1017.2 hPa | 0 mm | - | 77 W/m² | - |
| 1776868106 | 17.78° C | 99% | 1017.3 hPa | 0 mm | - | 56 W/m² | - |
| 1776867802 | 17.78° C | 99% | 1017.3 hPa | 0 mm | - | 52 W/m² | - |
* Rain latest hour (hover to see other rain measurements)
** Current wind speed in m/s (hover to see current wind gust speed)